Flight Track Log - Related Links

Times and Time Zones

All times are in EDT time to prevent confusion due to time zone crossing. See the SWA750 flight status page for this flight to view local times or setup timezone preferences in your user account.

Time Position Orientation Groundspeed Altitude Reporting Facility
EDT Latitude Longitude Course Direction KTS MPH feet Rate Location/Type
Fri 10:16:17 PM 39.9500 -104.7167 244° Southwest 242 278 8,500  Level Denver TRACON
Fri 10:17:25 PM 40.0189 -104.7431 344° North 245 282 12,300 2,383 Climbing Denver Center
Fri 10:18:38 PM 40.0119 -104.8392 265° West 313 360 14,100 2,382 Climbing Denver Center
Fri 10:19:41 PM 39.9447 -104.9603 234° Southwest 340 391 17,700 2,784 Climbing Denver Center
Fri 10:20:43 PM 39.8831 -105.0667 233° Southwest 369 425 19,900 2,195 Climbing Denver Center
Fri 10:21:00 PM 39.6362 -105.3313 244° Southwest  Level FlightAware Approximate
Fri 10:21:44 PM 39.8317 -105.2014 244° Southwest 387 445 22,200  Level Denver Center
Fri 10:22:46 PM 39.7878 -105.3144 243° Southwest 410 472 24,000 2,032 Climbing Denver Center
Fri 10:23:48 PM 39.7250 -105.4772 243° Southwest 410 472 26,400 1,887 Climbing Denver Center
Fri 10:24:50 PM 39.6703 -105.6203 244° Southwest 434 499 27,900 1,452 Climbing Denver Center
Fri 10:25:52 PM 39.6136 -105.7658 243° Southwest 446 513 29,400 1,403 Climbing Denver Center
Fri 10:26:54 PM 39.5581 -105.9144 244° Southwest 452 520 30,800 1,452 Climbing Denver Center
Fri 10:27:56 PM 39.4997 -106.0658 244° Southwest 463 533 32,400 1,463 Climbing Denver Center
Fri 10:28:57 PM 39.4417 -106.2153 243° Southwest 467 537 33,800 1,415 Climbing Denver Center
Fri 10:29:59 PM 39.3764 -106.3808 243° Southwest 470 541 35,300 1,065 Climbing Denver Center
Fri 10:31:01 PM 39.3100 -106.5497 243° Southwest 472 543 36,000 339 Climbing Denver Center
Fri 10:32:03 PM 39.2519 -106.6933 242° Southwest 471 542 36,000  Level Denver Center
Fri 10:33:05 PM 39.1786 -106.8208 233° Southwest 465 535 36,000  Level Denver Center
Fri 10:34:07 PM 39.0831 -106.9678 230° Southwest 473 544 36,000  Level Denver Center
Fri 10:35:09 PM 39.0033 -107.0917 230° Southwest 470 541 36,000  Level Denver Center
Fri 10:36:10 PM 38.9103 -107.2364 230° Southwest 470 541 36,000  Level Denver Center
Fri 10:37:12 PM 38.8306 -107.3592 230° Southwest 467 537 36,000  Level Denver Center
Fri 10:38:14 PM 38.7369 -107.5017 230° Southwest 466 536 36,000  Level Denver Center
Fri 10:39:16 PM 38.6564 -107.6253 230° Southwest 469 540 36,000  Level Denver Center
Fri 10:40:17 PM 38.5769 -107.7467 230° Southwest 466 536 36,000  Level Denver Center
Fri 10:41:19 PM 38.4836 -107.8872 230° Southwest 463 533 36,000  Level Denver Center
Fri 10:42:21 PM 38.4042 -108.0078 230° Southwest 463 533 36,000  Level Denver Center
Fri 10:43:22 PM 38.3108 -108.1478 230° Southwest 463 533 36,000  Level Denver Center
Fri 10:44:24 PM 38.2314 -108.2669 230° Southwest 461 531 36,000  Level Denver Center
Fri 10:45:37 PM 38.1519 -108.3864 230° Southwest 461 531 36,000  Level Denver Center
Fri 10:46:39 PM 38.0447 -108.5503 230° Southwest 452 520 36,000  Level Denver Center
Fri 10:47:41 PM 37.9856 -108.6847 241° Southwest 453 521 36,000  Level Denver Center
Fri 10:48:43 PM 37.9150 -108.8414 240° Southwest 457 526 36,000  Level Denver Center
Fri 10:49:44 PM 37.8539 -108.9736 240° Southwest 456 525 36,000  Level Denver Center
Fri 10:50:46 PM 37.7833 -109.1294 240° Southwest 458 527 36,000  Level Denver Center
Fri 10:51:47 PM 37.7225 -109.2631 240° Southwest 457 526 36,000  Level Denver Center
Fri 10:52:49 PM 37.6617 -109.3942 240° Southwest 454 522 36,000  Level Denver Center
Fri 10:54:03 PM 37.5803 -109.5703 240° Southwest 456 525 36,000  Level Denver Center
Fri 10:55:04 PM 37.5103 -109.7225 240° Southwest 451 519 36,000  Level Denver Center
Fri 10:56:06 PM 37.4494 -109.8522 239° Southwest 451 519 36,000  Level Denver Center
Fri 10:57:07 PM 37.3889 -109.9808 239° Southwest 448 516 36,000  Level Denver Center
Fri 10:58:09 PM 37.3200 -110.1283 240° Southwest 438 504 36,000  Level Denver Center
Fri 10:59:10 PM 37.2642 -110.2447 239° Southwest 433 498 36,000  Level Denver Center
Fri 11:00:12 PM 37.2153 -110.3494 240° Southwest 434 499 36,000  Level Denver Center
Fri 11:01:13 PM 37.1294 -110.5300 239° Southwest 431 496 36,000  Level Denver Center
Fri 11:02:15 PM 37.0678 -110.6594 239° Southwest 433 498 36,000  Level Denver Center
Fri 11:03:16 PM 37.0047 -110.7903 239° Southwest 438 504 36,000  Level Denver Center
Fri 11:04:18 PM 36.9428 -110.9192 239° Southwest 434 499 36,000  Level Denver Center
Fri 11:05:19 PM 36.8797 -111.0483 239° Southwest 435 501 36,000  Level Denver Center
Fri 11:06:20 PM 36.8292 -111.1519 239° Southwest 436 502 36,000  Level Denver Center
Fri 11:07:22 PM 36.7539 -111.3075 239° Southwest 435 501 36,000  Level Denver Center
Fri 11:08:24 PM 36.6908 -111.4344 238° Southwest 433 498 36,000  Level Denver Center
Fri 11:09:25 PM 36.6181 -111.5867 239° Southwest 428 493 36,000  Level Denver Center
Fri 11:10:26 PM 36.5522 -111.7181 238° Southwest 438 504 36,000  Level Denver Center
Fri 11:11:28 PM 36.4853 -111.8511 238° Southwest 448 516 36,000  Level Denver Center
Fri 11:11:58 PM 36.4583 -111.9053 238° Southwest 450 518 36,000  Level Los Angeles Center
Fri 11:13:00 PM 36.3944 -112.0367 239° Southwest 446 513 36,000  Level Los Angeles Center
Fri 11:14:01 PM 36.3289 -112.1675 238° Southwest 445 512 36,000  Level Los Angeles Center
Fri 11:15:03 PM 36.2492 -112.3247 238° Southwest 448 516 36,000  Level Los Angeles Center
Fri 11:16:05 PM 36.1819 -112.4567 238° Southwest 451 519 36,000  Level Los Angeles Center
Fri 11:17:06 PM 36.1164 -112.5886 238° Southwest 451 519 36,000  Level Los Angeles Center
Fri 11:18:08 PM 36.0494 -112.7203 238° Southwest 451 519 36,000  Level Los Angeles Center
Fri 11:19:10 PM 35.9831 -112.8486 237° Southwest 445 512 36,000 -98 Level Los Angeles Center
Fri 11:20:11 PM 35.9203 -112.9703 238° Southwest 446 513 35,800 -683 Descending Los Angeles Center
Fri 11:21:13 PM 35.8436 -113.1222 238° Southwest 440 506 34,600 -788 Descending Los Angeles Center
Fri 11:22:28 PM 35.7647 -113.2758 238° Southwest 445 512 34,000 -265 Descending Los Angeles Center
Fri 11:23:29 PM 35.6994 -113.4022 238° Southwest 444 511 34,000  Level Los Angeles Center
Fri 11:24:30 PM 35.6336 -113.5264 237° Southwest 440 506 34,000  Level Los Angeles Center
Fri 11:25:32 PM 35.5775 -113.6592 243° Southwest 444 511 34,000  Level Los Angeles Center
Fri 11:26:34 PM 35.5133 -113.8200 244° Southwest 442 509 34,000  Level Los Angeles Center
Fri 11:27:36 PM 35.4581 -113.9556 243° Southwest 446 513 34,000  Level Los Angeles Center
Fri 11:28:37 PM 35.3981 -114.1011 243° Southwest 447 514 34,000  Level Los Angeles Center
Fri 11:29:39 PM 35.3414 -114.2392 243° Southwest 451 519 34,000  Level Los Angeles Center
Fri 11:30:41 PM 35.2864 -114.3736 243° Southwest 444 511 34,000  Level Los Angeles Center
Fri 11:31:43 PM 35.2292 -114.5097 243° Southwest 447 514 34,000  Level Los Angeles Center
Fri 11:32:45 PM 35.1717 -114.6492 243° Southwest 455 524 34,000  Level Los Angeles Center
Fri 11:33:46 PM 35.1150 -114.7844 243° Southwest 449 517 34,000  Level Los Angeles Center
Fri 11:34:48 PM 35.0581 -114.9194 243° Southwest 446 513 34,000  Level Los Angeles Center
Fri 11:35:50 PM 34.9906 -115.0794 243° Southwest 442 509 34,000 -98 Level Los Angeles Center
Fri 11:36:51 PM 34.9347 -115.2108 243° Southwest 437 503 33,800 -1,171 Descending Los Angeles Center
Fri 11:37:53 PM 34.8819 -115.3389 243° Southwest 425 489 31,600 -2,064 Descending Los Angeles Center
Fri 11:38:56 PM 34.8283 -115.4650 243° Southwest 419 482 29,500 -1,935 Descending Los Angeles Center
Fri 11:39:57 PM 34.7750 -115.5886 242° Southwest 404 465 27,600 -1,230 Descending Los Angeles Center
Fri 11:40:58 PM 34.7242 -115.7044 242° Southwest 390 449 27,000 -293 Descending Los Angeles Center
Fri 11:42:00 PM 34.6742 -115.8206 242° Southwest 389 448 27,000  Level Los Angeles Center
Fri 11:43:02 PM 34.6236 -115.9381 242° Southwest 391 450 27,000  Level Los Angeles Center
Fri 11:44:04 PM 34.5719 -116.0531 241° Southwest 390 449 27,000  Level Los Angeles Center
Fri 11:45:05 PM 34.5211 -116.1669 242° Southwest 388 447 27,000  Level Los Angeles Center
Fri 11:46:07 PM 34.4631 -116.3025 243° Southwest 384 442 27,000  Level Los Angeles Center
Fri 11:47:09 PM 34.4131 -116.4181 242° Southwest 383 441 27,000 -629 Level Los Angeles Center
Fri 11:48:11 PM 34.3592 -116.5428 242° Southwest 398 458 25,700 -1,707 Descending Los Angeles Center
Fri 11:49:12 PM 34.3064 -116.6636 242° Southwest 405 466 23,500 -2,049 Descending Los Angeles Center
Fri 11:50:14 PM 34.2533 -116.7819 242° Southwest 401 461 21,500 -1,887 Descending Los Angeles Center
Fri 11:51:16 PM 34.2025 -116.8944 241° Southwest 387 445 19,600 -1,415 Descending Los Angeles Center
Fri 11:52:17 PM 34.1531 -117.0061 242° Southwest 379 436 18,600 -976 Descending Los Angeles Center
Fri 11:53:19 PM 34.0944 -117.1389 242° Southwest 382 440 17,600 -1,306 Descending Los Angeles Center
Fri 11:54:21 PM 34.0467 -117.2444 241° Southwest 369 425 15,900 -1,805 Descending Los Angeles Center
Fri 11:55:22 PM 34.0361 -117.3619 264° West 357 411 13,900 -1,902 Descending Los Angeles Center
Fri 11:56:24 PM 34.0278 -117.4769 265° West 348 400 12,000 -1,584 Descending Los Angeles Center
Fri 11:57:27 PM 34.0344 -117.5872 274° West 335 386 10,600 -1,016 Descending Los Angeles Center
Fri 11:58:28 PM 34.0167 -117.7000 259° West 285 328 9,900 -991 Descending Southern California TRACON
Fri 11:59:22 PM 34.0167 -117.8000 270° West 282 325 8,700 -1,300 Descending Southern California TRACON
Sat 12:00:28 AM 34.0000 -117.9000 259° West 277 319 7,300 -1,143 Descending Southern California TRACON
Sat 12:01:28 AM 34.0000 -117.9833 270° West 265 305 6,300 -1,050 Descending Southern California TRACON
Sat 12:02:28 AM 33.9833 -118.0667 256° West 256 295 5,200 -992 Descending Southern California TRACON
Sat 12:03:29 AM 33.9833 -118.1500 270° West 236 272 4,300 -1,100 Descending Southern California TRACON
Sat 12:04:28 AM 33.9667 -118.2333 256° West 205 236 3,000 -1,104 Descending Southern California TRACON
Sat 12:05:34 AM 33.9667 -118.3000 270° West 177 204 2,000 -893 Descending Southern California TRACON
Sat 12:06:29 AM 33.9667 -118.3333 270° West 158 182 1,200 -783 Descending Southern California TRACON
Sat 12:07:29 AM 33.9500 -118.3833 248° West 141 162 500 -451 Descending Southern California TRACON
Sat 12:08:42 AM 33.9494 -118.4392 269° West 153 176 200 -247 Descending Los Angeles Center
Sat 12:10:00 AM 33.9425 -118.4081 259° West  Level Estimated

Login

Don't have an account? Register now (free) for customized features, flight alerts, and more!